sensor_id;sensor_type;location;lat;lon;timestamp;P1;durP1;ratioP1;P2;durP2;ratioP2
29906;SDS011;16776;50.958;10.994;2023-07-31T00:01:19;0.55;;;0.55;;
29906;SDS011;16776;50.958;10.994;2023-07-31T00:03:46;0.60;;;0.50;;
29906;SDS011;16776;50.958;10.994;2023-07-31T00:06:13;0.45;;;0.30;;
29906;SDS011;16776;50.958;10.994;2023-07-31T00:08:39;0.70;;;0.47;;
29906;SDS011;16776;50.958;10.994;2023-07-31T00:11:06;1.73;;;0.57;;
29906;SDS011;16776;50.958;10.994;2023-07-31T00:13:34;1.17;;;0.70;;
29906;SDS011;16776;50.958;10.994;2023-07-31T00:16:00;2.45;;;0.55;;
29906;SDS011;16776;50.958;10.994;2023-07-31T00:18:27;1.23;;;0.60;;
29906;SDS011;16776;50.958;10.994;2023-07-31T00:20:53;1.73;;;0.60;;
29906;SDS011;16776;50.958;10.994;2023-07-31T00:23:20;0.80;;;0.55;;
29906;SDS011;16776;50.958;10.994;2023-07-31T00:25:46;1.98;;;0.73;;
29906;SDS011;16776;50.958;10.994;2023-07-31T00:28:13;0.60;;;0.60;;
29906;SDS011;16776;50.958;10.994;2023-07-31T00:30:41;1.45;;;0.80;;
29906;SDS011;16776;50.958;10.994;2023-07-31T00:33:07;1.25;;;0.65;;
29906;SDS011;16776;50.958;10.994;2023-07-31T00:35:34;2.20;;;0.65;;
29906;SDS011;16776;50.958;10.994;2023-07-31T00:38:00;0.65;;;0.63;;
29906;SDS011;16776;50.958;10.994;2023-07-31T00:40:27;0.90;;;0.50;;
29906;SDS011;16776;50.958;10.994;2023-07-31T00:42:53;0.68;;;0.63;;
29906;SDS011;16776;50.958;10.994;2023-07-31T00:45:20;0.70;;;0.50;;
29906;SDS011;16776;50.958;10.994;2023-07-31T00:47:53;0.70;;;0.47;;
29906;SDS011;16776;50.958;10.994;2023-07-31T00:50:20;0.95;;;0.60;;
29906;SDS011;16776;50.958;10.994;2023-07-31T00:52:48;1.42;;;0.75;;
29906;SDS011;16776;50.958;10.994;2023-07-31T00:55:14;1.95;;;0.35;;
29906;SDS011;16776;50.958;10.994;2023-07-31T00:57:45;0.95;;;0.70;;
29906;SDS011;16776;50.958;10.994;2023-07-31T01:00:12;1.88;;;0.40;;
29906;SDS011;16776;50.958;10.994;2023-07-31T01:02:39;0.95;;;0.50;;
29906;SDS011;16776;50.958;10.994;2023-07-31T01:05:08;0.50;;;0.43;;
29906;SDS011;16776;50.958;10.994;2023-07-31T01:07:36;0.60;;;0.60;;
29906;SDS011;16776;50.958;10.994;2023-07-31T01:10:14;1.30;;;0.50;;
29906;SDS011;16776;50.958;10.994;2023-07-31T01:15:11;1.70;;;0.63;;
29906;SDS011;16776;50.958;10.994;2023-07-31T01:17:40;1.02;;;0.70;;
29906;SDS011;16776;50.958;10.994;2023-07-31T01:20:10;1.20;;;0.60;;
29906;SDS011;16776;50.958;10.994;2023-07-31T01:22:51;0.55;;;0.40;;
29906;SDS011;16776;50.958;10.994;2023-07-31T01:28:31;1.10;;;0.60;;
29906;SDS011;16776;50.958;10.994;2023-07-31T01:31:04;0.70;;;0.60;;
29906;SDS011;16776;50.958;10.994;2023-07-31T01:33:34;0.63;;;0.60;;
29906;SDS011;16776;50.958;10.994;2023-07-31T01:36:03;0.98;;;0.40;;
29906;SDS011;16776;50.958;10.994;2023-07-31T01:38:30;1.00;;;0.60;;
29906;SDS011;16776;50.958;10.994;2023-07-31T01:40:56;0.32;;;0.32;;
29906;SDS011;16776;50.958;10.994;2023-07-31T01:43:24;1.13;;;0.68;;
29906;SDS011;16776;50.958;10.994;2023-07-31T01:45:51;0.98;;;0.55;;
29906;SDS011;16776;50.958;10.994;2023-07-31T01:48:17;0.93;;;0.55;;
29906;SDS011;16776;50.958;10.994;2023-07-31T01:50:44;2.85;;;0.80;;
29906;SDS011;16776;50.958;10.994;2023-07-31T01:53:10;1.10;;;0.50;;
29906;SDS011;16776;50.958;10.994;2023-07-31T01:55:38;1.65;;;0.60;;
29906;SDS011;16776;50.958;10.994;2023-07-31T01:58:05;1.63;;;0.70;;
29906;SDS011;16776;50.958;10.994;2023-07-31T02:00:33;1.02;;;0.50;;
29906;SDS011;16776;50.958;10.994;2023-07-31T02:02:59;2.70;;;0.70;;
29906;SDS011;16776;50.958;10.994;2023-07-31T02:05:26;1.35;;;0.60;;
29906;SDS011;16776;50.958;10.994;2023-07-31T02:07:52;1.95;;;0.80;;
29906;SDS011;16776;50.958;10.994;2023-07-31T02:10:19;1.23;;;0.80;;
29906;SDS011;16776;50.958;10.994;2023-07-31T02:12:45;0.93;;;0.80;;
29906;SDS011;16776;50.958;10.994;2023-07-31T02:15:14;0.95;;;0.68;;
29906;SDS011;16776;50.958;10.994;2023-07-31T02:17:42;0.98;;;0.80;;
29906;SDS011;16776;50.958;10.994;2023-07-31T02:20:09;1.30;;;0.70;;
29906;SDS011;16776;50.958;10.994;2023-07-31T02:22:36;0.60;;;0.60;;
29906;SDS011;16776;50.958;10.994;2023-07-31T02:25:03;0.65;;;0.43;;
29906;SDS011;16776;50.958;10.994;2023-07-31T02:27:29;1.38;;;1.00;;
29906;SDS011;16776;50.958;10.994;2023-07-31T02:29:56;2.25;;;0.80;;
29906;SDS011;16776;50.958;10.994;2023-07-31T02:32:24;0.98;;;0.63;;
29906;SDS011;16776;50.958;10.994;2023-07-31T02:34:52;1.42;;;0.60;;
29906;SDS011;16776;50.958;10.994;2023-07-31T02:37:18;1.13;;;0.80;;
29906;SDS011;16776;50.958;10.994;2023-07-31T02:39:45;1.95;;;0.65;;
29906;SDS011;16776;50.958;10.994;2023-07-31T02:42:12;0.63;;;0.63;;
29906;SDS011;16776;50.958;10.994;2023-07-31T02:44:39;1.48;;;0.82;;
29906;SDS011;16776;50.958;10.994;2023-07-31T02:47:05;1.00;;;0.50;;
29906;SDS011;16776;50.958;10.994;2023-07-31T02:49:32;1.77;;;0.73;;
29906;SDS011;16776;50.958;10.994;2023-07-31T02:52:00;0.85;;;0.70;;
29906;SDS011;16776;50.958;10.994;2023-07-31T02:54:26;0.93;;;0.70;;
29906;SDS011;16776;50.958;10.994;2023-07-31T02:56:53;0.95;;;0.60;;
29906;SDS011;16776;50.958;10.994;2023-07-31T02:59:19;0.70;;;0.50;;
29906;SDS011;16776;50.958;10.994;2023-07-31T03:01:46;3.35;;;0.70;;
29906;SDS011;16776;50.958;10.994;2023-07-31T03:04:13;1.17;;;0.77;;
29906;SDS011;16776;50.958;10.994;2023-07-31T03:06:39;0.90;;;0.60;;
29906;SDS011;16776;50.958;10.994;2023-07-31T03:09:07;1.20;;;0.80;;
29906;SDS011;16776;50.958;10.994;2023-07-31T03:11:34;2.17;;;1.17;;
29906;SDS011;16776;50.958;10.994;2023-07-31T03:14:00;0.60;;;0.60;;
29906;SDS011;16776;50.958;10.994;2023-07-31T03:16:30;0.90;;;0.70;;
29906;SDS011;16776;50.958;10.994;2023-07-31T03:18:56;1.65;;;0.80;;
29906;SDS011;16776;50.958;10.994;2023-07-31T03:21:23;2.20;;;0.80;;
29906;SDS011;16776;50.958;10.994;2023-07-31T03:23:49;1.90;;;0.95;;
29906;SDS011;16776;50.958;10.994;2023-07-31T03:26:17;1.40;;;0.85;;
29906;SDS011;16776;50.958;10.994;2023-07-31T03:28:44;1.73;;;0.90;;
29906;SDS011;16776;50.958;10.994;2023-07-31T03:31:10;1.20;;;0.95;;
29906;SDS011;16776;50.958;10.994;2023-07-31T03:33:37;1.52;;;1.15;;
29906;SDS011;16776;50.958;10.994;2023-07-31T03:36:04;0.85;;;0.60;;
29906;SDS011;16776;50.958;10.994;2023-07-31T03:38:31;1.25;;;0.80;;
29906;SDS011;16776;50.958;10.994;2023-07-31T03:40:57;1.67;;;0.63;;
29906;SDS011;16776;50.958;10.994;2023-07-31T03:43:26;3.28;;;0.80;;
29906;SDS011;16776;50.958;10.994;2023-07-31T03:45:52;1.05;;;0.73;;
29906;SDS011;16776;50.958;10.994;2023-07-31T03:48:19;2.47;;;0.77;;
29906;SDS011;16776;50.958;10.994;2023-07-31T03:50:45;1.45;;;0.60;;
29906;SDS011;16776;50.958;10.994;2023-07-31T03:53:12;1.70;;;0.80;;
29906;SDS011;16776;50.958;10.994;2023-07-31T03:55:40;0.98;;;0.70;;
29906;SDS011;16776;50.958;10.994;2023-07-31T03:58:07;1.13;;;0.88;;
29906;SDS011;16776;50.958;10.994;2023-07-31T04:00:35;2.05;;;0.88;;
29906;SDS011;16776;50.958;10.994;2023-07-31T04:03:01;0.55;;;0.55;;
29906;SDS011;16776;50.958;10.994;2023-07-31T04:05:29;0.98;;;0.50;;
29906;SDS011;16776;50.958;10.994;2023-07-31T04:07:56;1.05;;;0.73;;
29906;SDS011;16776;50.958;10.994;2023-07-31T04:10:22;1.45;;;0.75;;
29906;SDS011;16776;50.958;10.994;2023-07-31T04:12:49;1.58;;;0.80;;
29906;SDS011;16776;50.958;10.994;2023-07-31T04:15:16;2.03;;;0.57;;
29906;SDS011;16776;50.958;10.994;2023-07-31T04:17:44;0.77;;;0.70;;
29906;SDS011;16776;50.958;10.994;2023-07-31T04:20:10;1.15;;;0.40;;
29906;SDS011;16776;50.958;10.994;2023-07-31T04:22:37;2.08;;;1.00;;
29906;SDS011;16776;50.958;10.994;2023-07-31T04:25:04;1.50;;;0.65;;
29906;SDS011;16776;50.958;10.994;2023-07-31T04:27:31;0.88;;;0.70;;
29906;SDS011;16776;50.958;10.994;2023-07-31T04:29:58;1.75;;;1.10;;
29906;SDS011;16776;50.958;10.994;2023-07-31T04:32:24;0.73;;;0.70;;
29906;SDS011;16776;50.958;10.994;2023-07-31T04:34:52;1.25;;;0.50;;
29906;SDS011;16776;50.958;10.994;2023-07-31T04:37:23;2.83;;;0.77;;
29906;SDS011;16776;50.958;10.994;2023-07-31T04:39:49;1.33;;;0.50;;
29906;SDS011;16776;50.958;10.994;2023-07-31T04:42:16;0.75;;;0.73;;
29906;SDS011;16776;50.958;10.994;2023-07-31T04:44:42;1.38;;;0.90;;
29906;SDS011;16776;50.958;10.994;2023-07-31T04:47:09;0.80;;;0.60;;
29906;SDS011;16776;50.958;10.994;2023-07-31T04:49:35;1.27;;;0.85;;
29906;SDS011;16776;50.958;10.994;2023-07-31T04:52:04;1.02;;;0.80;;
29906;SDS011;16776;50.958;10.994;2023-07-31T04:54:31;1.30;;;0.60;;
29906;SDS011;16776;50.958;10.994;2023-07-31T04:56:57;2.03;;;0.93;;
29906;SDS011;16776;50.958;10.994;2023-07-31T04:59:24;2.10;;;1.50;;
29906;SDS011;16776;50.958;10.994;2023-07-31T05:01:50;2.50;;;0.95;;
29906;SDS011;16776;50.958;10.994;2023-07-31T05:04:17;1.13;;;0.68;;
29906;SDS011;16776;50.958;10.994;2023-07-31T05:06:44;2.55;;;1.00;;
29906;SDS011;16776;50.958;10.994;2023-07-31T05:09:11;2.03;;;0.85;;
29906;SDS011;16776;50.958;10.994;2023-07-31T05:11:38;1.85;;;0.60;;
29906;SDS011;16776;50.958;10.994;2023-07-31T05:14:05;2.53;;;0.60;;
29906;SDS011;16776;50.958;10.994;2023-07-31T05:16:32;1.00;;;0.70;;
29906;SDS011;16776;50.958;10.994;2023-07-31T05:18:59;1.08;;;0.60;;
29906;SDS011;16776;50.958;10.994;2023-07-31T05:21:25;3.95;;;0.90;;
29906;SDS011;16776;50.958;10.994;2023-07-31T05:23:52;0.88;;;0.80;;
29906;SDS011;16776;50.958;10.994;2023-07-31T05:26:20;0.70;;;0.70;;
29906;SDS011;16776;50.958;10.994;2023-07-31T05:28:47;0.85;;;0.70;;
29906;SDS011;16776;50.958;10.994;2023-07-31T05:31:14;0.85;;;0.70;;
29906;SDS011;16776;50.958;10.994;2023-07-31T05:33:40;2.20;;;0.70;;
29906;SDS011;16776;50.958;10.994;2023-07-31T05:36:13;0.82;;;0.70;;
29906;SDS011;16776;50.958;10.994;2023-07-31T05:38:42;1.30;;;1.20;;
29906;SDS011;16776;50.958;10.994;2023-07-31T05:41:09;1.42;;;0.85;;
29906;SDS011;16776;50.958;10.994;2023-07-31T05:43:38;1.83;;;1.20;;
29906;SDS011;16776;50.958;10.994;2023-07-31T05:46:05;1.98;;;0.90;;
29906;SDS011;16776;50.958;10.994;2023-07-31T05:48:32;1.38;;;0.95;;
29906;SDS011;16776;50.958;10.994;2023-07-31T05:50:59;2.10;;;0.90;;
29906;SDS011;16776;50.958;10.994;2023-07-31T05:53:25;0.90;;;0.73;;
29906;SDS011;16776;50.958;10.994;2023-07-31T05:55:52;1.55;;;1.10;;
29906;SDS011;16776;50.958;10.994;2023-07-31T05:58:19;1.33;;;1.00;;
29906;SDS011;16776;50.958;10.994;2023-07-31T06:00:46;1.30;;;1.20;;
29906;SDS011;16776;50.958;10.994;2023-07-31T06:03:14;2.60;;;0.95;;
29906;SDS011;16776;50.958;10.994;2023-07-31T06:05:40;2.22;;;1.00;;
29906;SDS011;16776;50.958;10.994;2023-07-31T06:08:07;1.98;;;1.00;;
29906;SDS011;16776;50.958;10.994;2023-07-31T06:10:34;1.50;;;1.00;;
29906;SDS011;16776;50.958;10.994;2023-07-31T06:13:00;1.20;;;0.90;;
29906;SDS011;16776;50.958;10.994;2023-07-31T06:15:27;1.50;;;1.08;;
29906;SDS011;16776;50.958;10.994;2023-07-31T06:17:55;1.20;;;1.15;;
29906;SDS011;16776;50.958;10.994;2023-07-31T06:20:22;1.42;;;0.73;;
29906;SDS011;16776;50.958;10.994;2023-07-31T06:22:49;0.95;;;0.88;;
29906;SDS011;16776;50.958;10.994;2023-07-31T06:25:15;2.42;;;1.00;;
29906;SDS011;16776;50.958;10.994;2023-07-31T06:27:42;1.38;;;0.95;;
29906;SDS011;16776;50.958;10.994;2023-07-31T06:30:09;0.70;;;0.70;;
29906;SDS011;16776;50.958;10.994;2023-07-31T06:32:36;1.75;;;0.85;;
29906;SDS011;16776;50.958;10.994;2023-07-31T06:35:05;1.77;;;0.82;;
29906;SDS011;16776;50.958;10.994;2023-07-31T06:37:32;1.40;;;1.08;;
29906;SDS011;16776;50.958;10.994;2023-07-31T06:39:58;1.30;;;0.88;;
29906;SDS011;16776;50.958;10.994;2023-07-31T06:42:25;1.45;;;0.88;;
29906;SDS011;16776;50.958;10.994;2023-07-31T06:44:52;0.98;;;0.70;;
29906;SDS011;16776;50.958;10.994;2023-07-31T06:47:18;0.70;;;0.60;;
29906;SDS011;16776;50.958;10.994;2023-07-31T06:49:45;0.85;;;0.77;;
29906;SDS011;16776;50.958;10.994;2023-07-31T06:52:13;0.80;;;0.80;;
29906;SDS011;16776;50.958;10.994;2023-07-31T06:54:39;2.35;;;0.80;;
29906;SDS011;16776;50.958;10.994;2023-07-31T06:57:06;0.57;;;0.57;;
29906;SDS011;16776;50.958;10.994;2023-07-31T06:59:33;1.25;;;1.08;;
29906;SDS011;16776;50.958;10.994;2023-07-31T07:01:59;1.10;;;0.70;;
29906;SDS011;16776;50.958;10.994;2023-07-31T07:04:26;1.90;;;0.93;;
29906;SDS011;16776;50.958;10.994;2023-07-31T07:06:53;2.22;;;0.95;;
29906;SDS011;16776;50.958;10.994;2023-07-31T07:09:21;1.23;;;0.93;;
29906;SDS011;16776;50.958;10.994;2023-07-31T07:11:47;1.15;;;0.98;;
29906;SDS011;16776;50.958;10.994;2023-07-31T07:14:14;2.78;;;0.93;;
29906;SDS011;16776;50.958;10.994;2023-07-31T07:16:40;0.70;;;0.70;;
29906;SDS011;16776;50.958;10.994;2023-07-31T07:19:07;1.92;;;0.98;;
29906;SDS011;16776;50.958;10.994;2023-07-31T07:21:34;0.80;;;0.80;;
29906;SDS011;16776;50.958;10.994;2023-07-31T07:24:00;1.98;;;1.00;;
29906;SDS011;16776;50.958;10.994;2023-07-31T07:26:28;0.80;;;0.77;;
29906;SDS011;16776;50.958;10.994;2023-07-31T07:28:58;3.42;;;0.93;;
29906;SDS011;16776;50.958;10.994;2023-07-31T07:31:27;1.55;;;0.70;;
29906;SDS011;16776;50.958;10.994;2023-07-31T07:33:53;2.47;;;1.00;;
29906;SDS011;16776;50.958;10.994;2023-07-31T07:36:20;1.13;;;1.00;;
29906;SDS011;16776;50.958;10.994;2023-07-31T07:38:47;3.20;;;1.42;;
29906;SDS011;16776;50.958;10.994;2023-07-31T07:41:13;1.42;;;0.85;;
29906;SDS011;16776;50.958;10.994;2023-07-31T07:43:41;1.50;;;1.10;;
29906;SDS011;16776;50.958;10.994;2023-07-31T07:46:08;2.63;;;1.30;;
29906;SDS011;16776;50.958;10.994;2023-07-31T07:48:34;3.40;;;0.90;;
29906;SDS011;16776;50.958;10.994;2023-07-31T07:51:01;1.23;;;1.00;;
29906;SDS011;16776;50.958;10.994;2023-07-31T07:53:27;1.23;;;1.10;;
29906;SDS011;16776;50.958;10.994;2023-07-31T07:55:54;1.63;;;1.23;;
29906;SDS011;16776;50.958;10.994;2023-07-31T07:58:21;2.28;;;0.80;;
29906;SDS011;16776;50.958;10.994;2023-07-31T08:00:51;1.50;;;0.88;;
29906;SDS011;16776;50.958;10.994;2023-07-31T08:03:18;0.80;;;0.80;;
29906;SDS011;16776;50.958;10.994;2023-07-31T08:05:46;1.42;;;0.98;;
29906;SDS011;16776;50.958;10.994;2023-07-31T08:08:14;1.23;;;1.13;;
29906;SDS011;16776;50.958;10.994;2023-07-31T08:10:42;1.30;;;0.88;;
29906;SDS011;16776;50.958;10.994;2023-07-31T08:13:09;1.45;;;1.23;;
29906;SDS011;16776;50.958;10.994;2023-07-31T08:15:36;1.67;;;0.93;;
29906;SDS011;16776;50.958;10.994;2023-07-31T08:18:03;1.85;;;0.90;;
29906;SDS011;16776;50.958;10.994;2023-07-31T08:20:30;1.13;;;0.98;;
29906;SDS011;16776;50.958;10.994;2023-07-31T08:22:57;1.40;;;1.10;;
29906;SDS011;16776;50.958;10.994;2023-07-31T08:25:23;2.03;;;1.00;;
29906;SDS011;16776;50.958;10.994;2023-07-31T08:27:50;1.63;;;1.00;;
29906;SDS011;16776;50.958;10.994;2023-07-31T08:30:17;1.30;;;1.05;;
29906;SDS011;16776;50.958;10.994;2023-07-31T08:32:44;1.05;;;0.90;;
29906;SDS011;16776;50.958;10.994;2023-07-31T08:35:12;1.13;;;0.90;;
29906;SDS011;16776;50.958;10.994;2023-07-31T08:37:39;1.38;;;0.90;;
29906;SDS011;16776;50.958;10.994;2023-07-31T08:40:06;1.60;;;1.10;;
29906;SDS011;16776;50.958;10.994;2023-07-31T08:42:33;1.60;;;1.23;;
29906;SDS011;16776;50.958;10.994;2023-07-31T08:45:00;1.60;;;1.00;;
29906;SDS011;16776;50.958;10.994;2023-07-31T08:47:29;1.13;;;1.02;;
29906;SDS011;16776;50.958;10.994;2023-07-31T08:49:57;2.15;;;1.20;;
29906;SDS011;16776;50.958;10.994;2023-07-31T08:52:26;1.60;;;1.33;;
29906;SDS011;16776;50.958;10.994;2023-07-31T08:54:53;1.45;;;0.93;;
29906;SDS011;16776;50.958;10.994;2023-07-31T08:57:19;1.45;;;0.98;;
29906;SDS011;16776;50.958;10.994;2023-07-31T08:59:46;1.48;;;1.10;;
29906;SDS011;16776;50.958;10.994;2023-07-31T09:02:13;1.33;;;0.98;;
29906;SDS011;16776;50.958;10.994;2023-07-31T09:04:41;1.30;;;1.10;;
29906;SDS011;16776;50.958;10.994;2023-07-31T09:07:08;4.25;;;1.17;;
29906;SDS011;16776;50.958;10.994;2023-07-31T09:09:39;2.85;;;1.10;;
29906;SDS011;16776;50.958;10.994;2023-07-31T09:12:06;1.75;;;1.27;;
29906;SDS011;16776;50.958;10.994;2023-07-31T09:14:33;1.55;;;1.10;;
29906;SDS011;16776;50.958;10.994;2023-07-31T09:17:04;1.30;;;1.00;;
29906;SDS011;16776;50.958;10.994;2023-07-31T09:19:32;2.67;;;1.23;;
29906;SDS011;16776;50.958;10.994;2023-07-31T09:22:02;1.30;;;1.20;;
29906;SDS011;16776;50.958;10.994;2023-07-31T09:24:29;3.78;;;1.65;;
29906;SDS011;16776;50.958;10.994;2023-07-31T09:26:59;3.45;;;1.65;;
29906;SDS011;16776;50.958;10.994;2023-07-31T09:29:26;2.60;;;1.85;;
29906;SDS011;16776;50.958;10.994;2023-07-31T09:31:54;1.73;;;1.42;;
29906;SDS011;16776;50.958;10.994;2023-07-31T09:34:28;2.17;;;1.52;;
29906;SDS011;16776;50.958;10.994;2023-07-31T09:36:57;1.63;;;1.17;;
29906;SDS011;16776;50.958;10.994;2023-07-31T09:39:27;3.88;;;1.52;;
29906;SDS011;16776;50.958;10.994;2023-07-31T09:41:54;2.70;;;1.40;;
29906;SDS011;16776;50.958;10.994;2023-07-31T09:44:22;1.98;;;1.20;;
29906;SDS011;16776;50.958;10.994;2023-07-31T09:47:04;3.88;;;1.40;;
29906;SDS011;16776;50.958;10.994;2023-07-31T09:49:31;2.05;;;0.90;;
29906;SDS011;16776;50.958;10.994;2023-07-31T09:51:57;2.20;;;1.65;;
29906;SDS011;16776;50.958;10.994;2023-07-31T09:54:24;1.77;;;1.20;;
29906;SDS011;16776;50.958;10.994;2023-07-31T09:56:51;1.63;;;1.40;;
29906;SDS011;16776;50.958;10.994;2023-07-31T09:59:23;4.03;;;2.00;;
29906;SDS011;16776;50.958;10.994;2023-07-31T10:01:50;3.42;;;1.83;;
29906;SDS011;16776;50.958;10.994;2023-07-31T10:04:21;2.40;;;1.38;;
29906;SDS011;16776;50.958;10.994;2023-07-31T10:06:53;1.57;;;1.33;;
29906;SDS011;16776;50.958;10.994;2023-07-31T10:09:20;1.42;;;1.20;;
29906;SDS011;16776;50.958;10.994;2023-07-31T10:11:51;2.88;;;1.40;;
29906;SDS011;16776;50.958;10.994;2023-07-31T10:14:21;1.58;;;1.30;;
29906;SDS011;16776;50.958;10.994;2023-07-31T10:16:52;2.15;;;1.33;;
29906;SDS011;16776;50.958;10.994;2023-07-31T10:19:19;1.80;;;1.42;;
29906;SDS011;16776;50.958;10.994;2023-07-31T10:21:46;1.33;;;1.23;;
29906;SDS011;16776;50.958;10.994;2023-07-31T10:24:15;2.22;;;2.03;;
29906;SDS011;16776;50.958;10.994;2023-07-31T10:26:42;3.33;;;2.30;;
29906;SDS011;16776;50.958;10.994;2023-07-31T10:29:14;2.53;;;1.40;;
29906;SDS011;16776;50.958;10.994;2023-07-31T10:31:44;5.75;;;1.80;;
29906;SDS011;16776;50.958;10.994;2023-07-31T10:34:12;2.28;;;1.90;;
29906;SDS011;16776;50.958;10.994;2023-07-31T10:36:40;1.58;;;1.20;;
29906;SDS011;16776;50.958;10.994;2023-07-31T10:39:07;2.53;;;1.98;;
29906;SDS011;16776;50.958;10.994;2023-07-31T10:42:09;2.00;;;1.40;;
29906;SDS011;16776;50.958;10.994;2023-07-31T10:44:36;1.80;;;1.63;;
29906;SDS011;16776;50.958;10.994;2023-07-31T10:47:04;1.98;;;1.63;;
29906;SDS011;16776;50.958;10.994;2023-07-31T10:49:30;2.65;;;1.45;;
29906;SDS011;16776;50.958;10.994;2023-07-31T10:51:58;2.38;;;1.40;;
29906;SDS011;16776;50.958;10.994;2023-07-31T10:54:25;2.45;;;1.40;;
29906;SDS011;16776;50.958;10.994;2023-07-31T10:56:53;1.65;;;1.33;;
29906;SDS011;16776;50.958;10.994;2023-07-31T10:59:20;2.38;;;1.50;;
29906;SDS011;16776;50.958;10.994;2023-07-31T11:01:53;1.83;;;1.20;;
29906;SDS011;16776;50.958;10.994;2023-07-31T11:04:23;2.95;;;1.73;;
29906;SDS011;16776;50.958;10.994;2023-07-31T11:06:57;3.00;;;1.92;;
29906;SDS011;16776;50.958;10.994;2023-07-31T11:09:24;2.63;;;1.77;;
29906;SDS011;16776;50.958;10.994;2023-07-31T11:11:55;1.90;;;1.00;;
29906;SDS011;16776;50.958;10.994;2023-07-31T11:14:22;2.38;;;1.40;;
29906;SDS011;16776;50.958;10.994;2023-07-31T11:16:49;1.52;;;1.42;;
29906;SDS011;16776;50.958;10.994;2023-07-31T11:19:20;2.53;;;1.77;;
29906;SDS011;16776;50.958;10.994;2023-07-31T11:21:49;1.13;;;1.00;;
29906;SDS011;16776;50.958;10.994;2023-07-31T11:24:16;1.80;;;1.30;;
29906;SDS011;16776;50.958;10.994;2023-07-31T11:26:47;3.17;;;1.63;;
29906;SDS011;16776;50.958;10.994;2023-07-31T11:29:15;3.47;;;1.90;;
29906;SDS011;16776;50.958;10.994;2023-07-31T11:31:44;2.22;;;1.58;;
29906;SDS011;16776;50.958;10.994;2023-07-31T11:34:12;2.28;;;1.67;;
29906;SDS011;16776;50.958;10.994;2023-07-31T11:36:39;3.03;;;1.80;;
29906;SDS011;16776;50.958;10.994;2023-07-31T11:39:07;3.70;;;1.67;;
29906;SDS011;16776;50.958;10.994;2023-07-31T11:41:34;2.30;;;1.20;;
29906;SDS011;16776;50.958;10.994;2023-07-31T11:44:01;2.72;;;1.45;;
29906;SDS011;16776;50.958;10.994;2023-07-31T11:46:29;1.98;;;1.70;;
29906;SDS011;16776;50.958;10.994;2023-07-31T11:48:58;2.17;;;1.58;;
29906;SDS011;16776;50.958;10.994;2023-07-31T11:51:26;2.60;;;1.80;;
29906;SDS011;16776;50.958;10.994;2023-07-31T11:53:55;2.90;;;1.55;;
29906;SDS011;16776;50.958;10.994;2023-07-31T11:56:25;2.00;;;1.52;;
29906;SDS011;16776;50.958;10.994;2023-07-31T11:58:53;1.40;;;1.10;;
29906;SDS011;16776;50.958;10.994;2023-07-31T12:01:23;1.95;;;1.38;;
29906;SDS011;16776;50.958;10.994;2023-07-31T12:03:51;3.67;;;1.92;;
29906;SDS011;16776;50.958;10.994;2023-07-31T12:06:18;1.85;;;1.30;;
29906;SDS011;16776;50.958;10.994;2023-07-31T12:08:45;3.08;;;1.38;;
29906;SDS011;16776;50.958;10.994;2023-07-31T12:11:12;2.38;;;1.25;;
29906;SDS011;16776;50.958;10.994;2023-07-31T12:13:41;1.85;;;1.20;;
29906;SDS011;16776;50.958;10.994;2023-07-31T12:16:07;3.08;;;1.70;;
29906;SDS011;16776;50.958;10.994;2023-07-31T12:18:34;2.30;;;1.20;;
29906;SDS011;16776;50.958;10.994;2023-07-31T12:21:04;2.05;;;1.25;;
29906;SDS011;16776;50.958;10.994;2023-07-31T12:23:33;4.05;;;1.83;;
29906;SDS011;16776;50.958;10.994;2023-07-31T12:26:02;2.38;;;1.73;;
29906;SDS011;16776;50.958;10.994;2023-07-31T12:28:34;2.00;;;1.52;;
29906;SDS011;16776;50.958;10.994;2023-07-31T12:31:04;2.08;;;1.40;;
29906;SDS011;16776;50.958;10.994;2023-07-31T12:33:31;2.40;;;1.30;;
29906;SDS011;16776;50.958;10.994;2023-07-31T12:36:00;1.75;;;1.25;;
29906;SDS011;16776;50.958;10.994;2023-07-31T12:38:27;1.38;;;1.23;;
29906;SDS011;16776;50.958;10.994;2023-07-31T12:40:54;1.63;;;0.93;;
29906;SDS011;16776;50.958;10.994;2023-07-31T12:43:21;1.52;;;1.00;;
29906;SDS011;16776;50.958;10.994;2023-07-31T12:45:47;1.60;;;1.50;;
29906;SDS011;16776;50.958;10.994;2023-07-31T12:48:16;1.42;;;1.27;;
29906;SDS011;16776;50.958;10.994;2023-07-31T12:50:42;1.50;;;1.08;;
29906;SDS011;16776;50.958;10.994;2023-07-31T12:53:09;1.42;;;1.13;;
29906;SDS011;16776;50.958;10.994;2023-07-31T12:55:36;2.00;;;1.45;;
29906;SDS011;16776;50.958;10.994;2023-07-31T12:58:02;1.98;;;1.10;;
29906;SDS011;16776;50.958;10.994;2023-07-31T13:00:29;2.55;;;1.08;;
29906;SDS011;16776;50.958;10.994;2023-07-31T13:02:56;1.73;;;1.17;;
29906;SDS011;16776;50.958;10.994;2023-07-31T13:05:23;1.40;;;1.05;;
29906;SDS011;16776;50.958;10.994;2023-07-31T13:07:50;1.60;;;1.30;;
29906;SDS011;16776;50.958;10.994;2023-07-31T13:10:17;1.42;;;1.30;;
29906;SDS011;16776;50.958;10.994;2023-07-31T13:12:43;2.00;;;1.35;;
29906;SDS011;16776;50.958;10.994;2023-07-31T13:15:11;3.38;;;0.95;;
29906;SDS011;16776;50.958;10.994;2023-07-31T13:17:38;2.13;;;1.20;;
29906;SDS011;16776;50.958;10.994;2023-07-31T13:20:05;2.78;;;1.60;;
29906;SDS011;16776;50.958;10.994;2023-07-31T13:22:33;2.03;;;1.40;;
29906;SDS011;16776;50.958;10.994;2023-07-31T13:25:00;1.58;;;1.10;;
29906;SDS011;16776;50.958;10.994;2023-07-31T13:27:27;1.67;;;1.08;;
29906;SDS011;16776;50.958;10.994;2023-07-31T13:29:53;1.73;;;1.40;;
29906;SDS011;16776;50.958;10.994;2023-07-31T13:32:20;2.25;;;1.45;;
29906;SDS011;16776;50.958;10.994;2023-07-31T13:34:47;2.30;;;1.38;;
29906;SDS011;16776;50.958;10.994;2023-07-31T13:37:14;1.92;;;1.30;;
29906;SDS011;16776;50.958;10.994;2023-07-31T13:39:43;2.58;;;1.42;;
29906;SDS011;16776;50.958;10.994;2023-07-31T13:42:09;1.52;;;1.42;;
29906;SDS011;16776;50.958;10.994;2023-07-31T13:44:37;2.17;;;1.40;;
29906;SDS011;16776;50.958;10.994;2023-07-31T13:47:03;2.00;;;1.33;;
29906;SDS011;16776;50.958;10.994;2023-07-31T13:49:30;2.13;;;1.52;;
29906;SDS011;16776;50.958;10.994;2023-07-31T13:51:57;3.13;;;1.50;;
29906;SDS011;16776;50.958;10.994;2023-07-31T13:54:24;1.48;;;1.20;;
29906;SDS011;16776;50.958;10.994;2023-07-31T13:56:52;1.38;;;1.08;;
29906;SDS011;16776;50.958;10.994;2023-07-31T13:59:19;2.45;;;1.83;;
29906;SDS011;16776;50.958;10.994;2023-07-31T14:01:46;1.65;;;1.27;;
29906;SDS011;16776;50.958;10.994;2023-07-31T14:04:13;2.55;;;1.45;;
29906;SDS011;16776;50.958;10.994;2023-07-31T14:06:40;2.78;;;1.65;;
29906;SDS011;16776;50.958;10.994;2023-07-31T14:09:07;2.20;;;1.60;;
29906;SDS011;16776;50.958;10.994;2023-07-31T14:11:33;2.40;;;1.67;;
29906;SDS011;16776;50.958;10.994;2023-07-31T14:14:02;3.38;;;1.75;;
29906;SDS011;16776;50.958;10.994;2023-07-31T14:16:29;2.13;;;1.67;;
29906;SDS011;16776;50.958;10.994;2023-07-31T14:18:56;2.47;;;1.48;;
29906;SDS011;16776;50.958;10.994;2023-07-31T14:21:24;1.88;;;1.58;;
29906;SDS011;16776;50.958;10.994;2023-07-31T14:23:51;3.05;;;1.90;;
29906;SDS011;16776;50.958;10.994;2023-07-31T14:26:17;1.70;;;1.48;;
29906;SDS011;16776;50.958;10.994;2023-07-31T14:28:44;4.68;;;1.50;;
29906;SDS011;16776;50.958;10.994;2023-07-31T14:31:12;2.80;;;1.63;;
29906;SDS011;16776;50.958;10.994;2023-07-31T14:33:38;2.10;;;1.20;;
29906;SDS011;16776;50.958;10.994;2023-07-31T14:36:05;3.58;;;2.00;;
29906;SDS011;16776;50.958;10.994;2023-07-31T14:38:32;1.90;;;1.42;;
29906;SDS011;16776;50.958;10.994;2023-07-31T14:40:59;3.90;;;1.85;;